createdAt,value
2019-03-28T00:02:14.031Z,3.00
2019-03-28T00:04:40.885Z,3.10
2019-03-28T00:07:08.052Z,3.20
2019-03-28T00:09:34.626Z,2.80
2019-03-28T00:12:01.255Z,2.70
2019-03-28T00:14:27.962Z,3.00
2019-03-28T00:16:54.595Z,3.40
2019-03-28T00:19:21.483Z,3.60
2019-03-28T00:21:51.841Z,3.10
2019-03-28T00:24:22.277Z,2.70
2019-03-28T00:26:50.620Z,2.40
2019-03-28T00:29:20.648Z,2.70
2019-03-28T00:31:48.995Z,2.40
2019-03-28T00:34:17.896Z,2.50
2019-03-28T00:36:44.654Z,2.70
2019-03-28T00:39:11.239Z,2.60
2019-03-28T00:41:40.406Z,2.90
2019-03-28T00:44:10.946Z,3.20
2019-03-28T00:49:25.647Z,2.80
2019-03-28T00:51:53.545Z,3.20
2019-03-28T00:54:23.376Z,3.30
2019-03-28T00:56:54.701Z,2.40
2019-03-28T00:59:22.387Z,2.30
2019-03-28T01:01:53.130Z,2.60
2019-03-28T01:04:24.161Z,2.90
2019-03-28T01:06:51.765Z,3.20
2019-03-28T01:09:22.625Z,2.80
2019-03-28T01:11:50.630Z,2.30
2019-03-28T01:14:22.549Z,2.10
2019-03-28T01:16:53.223Z,2.40
2019-03-28T01:19:38.710Z,2.00
2019-03-28T01:22:06.380Z,2.30
2019-03-28T01:24:41.388Z,2.20
2019-03-28T01:27:09.875Z,2.30
2019-03-28T01:29:40.365Z,2.40
2019-03-28T01:32:10.126Z,2.40
2019-03-28T01:34:41.932Z,2.30
2019-03-28T01:37:13.012Z,2.20
2019-03-28T01:42:29.372Z,2.50
2019-03-28T01:44:57.982Z,2.40
2019-03-28T01:47:28.158Z,2.40
2019-03-28T01:55:28.797Z,2.60
2019-03-28T01:57:56.346Z,2.20
2019-03-28T02:00:23.294Z,2.20
2019-03-28T02:02:49.994Z,2.50
2019-03-28T02:05:17.151Z,2.40
2019-03-28T02:07:43.726Z,2.50
2019-03-28T02:10:10.398Z,2.50
2019-03-28T02:12:37.297Z,2.60
2019-03-28T02:15:04.456Z,2.00
2019-03-28T02:17:31.331Z,2.30
2019-03-28T02:20:14.356Z,2.70
2019-03-28T02:22:45.402Z,2.50
2019-03-28T02:25:17.271Z,2.60
2019-03-28T02:27:44.427Z,2.00
2019-03-28T02:30:16.283Z,1.50
2019-03-28T02:32:45.733Z,1.40
2019-03-28T02:35:18.880Z,1.50
2019-03-28T02:37:48.209Z,1.80
2019-03-28T02:40:33.650Z,1.60
2019-03-28T02:43:06.299Z,1.50
2019-03-28T02:45:38.964Z,1.40
2019-03-28T02:48:07.797Z,1.70
2019-03-28T02:50:38.027Z,1.50
2019-03-28T02:53:06.721Z,1.40
2019-03-28T02:55:38.054Z,1.30
2019-03-28T02:58:06.951Z,2.00
2019-03-28T03:00:40.137Z,1.80
2019-03-28T03:03:18.778Z,2.00
2019-03-28T03:05:48.323Z,1.70
2019-03-28T03:08:17.670Z,1.60
2019-03-28T03:10:49.211Z,1.80
2019-03-28T03:13:17.879Z,1.30
2019-03-28T03:15:48.833Z,1.20
2019-03-28T03:18:15.522Z,1.90
2019-03-28T03:20:46.272Z,2.40
2019-03-28T03:23:16.816Z,2.30
2019-03-28T03:25:44.438Z,2.30
2019-03-28T03:28:14.701Z,2.30
2019-03-28T03:30:44.409Z,2.00
2019-03-28T03:33:12.548Z,2.50
2019-03-28T03:35:41.966Z,2.30
2019-03-28T03:38:11.631Z,2.20
2019-03-28T03:43:24.843Z,1.70
2019-03-28T03:45:56.064Z,1.40
2019-03-28T03:48:27.194Z,1.70
2019-03-28T03:50:54.953Z,2.00
2019-03-28T03:53:22.619Z,2.40
2019-03-28T03:55:51.753Z,2.30
2019-03-28T03:58:21.327Z,2.30
2019-03-28T04:00:52.369Z,2.50
2019-03-28T04:03:19.528Z,2.30
2019-03-28T04:05:47.887Z,2.30
2019-03-28T04:08:15.782Z,2.30
2019-03-28T04:10:46.415Z,2.60
2019-03-28T04:13:17.296Z,2.80
2019-03-28T04:15:58.269Z,2.70
2019-03-28T04:18:30.955Z,2.30
2019-03-28T04:20:57.333Z,2.50
2019-03-28T04:23:25.239Z,2.30
2019-03-28T04:25:52.138Z,2.40
2019-03-28T04:28:30.717Z,2.70
2019-03-28T04:30:47.121Z,2.60
2019-03-28T04:33:13.874Z,2.50
2019-03-28T04:35:40.914Z,2.40
2019-03-28T04:38:07.827Z,2.70
2019-03-28T04:40:34.770Z,2.20
2019-03-28T04:43:01.661Z,2.30
2019-03-28T04:45:28.328Z,2.60
2019-03-28T04:47:55.185Z,2.70
2019-03-28T04:50:21.854Z,2.80
2019-03-28T04:52:53.012Z,3.10
2019-03-28T04:55:20.042Z,3.30
2019-03-28T04:57:46.634Z,2.70
2019-03-28T05:00:13.243Z,2.60
2019-03-28T05:02:39.929Z,2.40
2019-03-28T05:05:09.799Z,2.50
2019-03-28T05:07:36.484Z,2.40
2019-03-28T05:10:03.168Z,2.50
2019-03-28T05:12:30.227Z,2.80
2019-03-28T05:14:56.801Z,2.70
2019-03-28T05:17:23.408Z,2.70
2019-03-28T05:20:07.782Z,2.40
2019-03-28T05:22:33.785Z,2.80
2019-03-28T05:25:00.733Z,3.20
2019-03-28T05:27:28.813Z,3.20
2019-03-28T05:29:55.573Z,3.60
2019-03-28T05:32:22.314Z,3.60
2019-03-28T05:34:49.215Z,3.20
2019-03-28T05:37:15.831Z,3.60
2019-03-28T05:39:42.980Z,3.80
2019-03-28T05:42:10.299Z,3.50
2019-03-28T05:44:36.908Z,3.80
2019-03-28T05:47:03.775Z,3.70
2019-03-28T05:49:30.368Z,3.60
2019-03-28T05:51:57.293Z,3.90
2019-03-28T05:54:23.950Z,4.00
2019-03-28T05:56:50.578Z,3.90
2019-03-28T05:59:17.244Z,3.80
2019-03-28T06:01:43.851Z,3.40
2019-03-28T06:04:10.815Z,3.40
2019-03-28T06:06:37.428Z,3.30
2019-03-28T06:09:04.182Z,3.40
2019-03-28T06:11:30.854Z,3.90
2019-03-28T06:13:57.939Z,3.60
2019-03-28T06:16:24.909Z,3.70
2019-03-28T06:18:51.859Z,4.00
2019-03-28T06:21:30.522Z,4.20
2019-03-28T06:23:49.912Z,4.50
2019-03-28T06:26:23.498Z,4.40
2019-03-28T06:28:50.358Z,4.60
2019-03-28T06:31:19.251Z,4.50
2019-03-28T06:33:46.772Z,4.90
2019-03-28T06:36:14.575Z,5.30
2019-03-28T06:38:44.930Z,5.20
2019-03-28T06:41:13.391Z,5.30
2019-03-28T06:43:44.509Z,5.30
2019-03-28T06:46:15.750Z,5.30
2019-03-28T06:48:44.787Z,5.60
2019-03-28T06:51:15.783Z,5.50
2019-03-28T06:53:43.804Z,5.80
2019-03-28T06:58:57.377Z,5.90
2019-03-28T07:01:24.607Z,5.80
2019-03-28T07:06:40.568Z,6.20
2019-03-28T07:09:11.015Z,6.50
2019-03-28T07:11:42.827Z,5.90
2019-03-28T07:14:09.548Z,6.10
2019-03-28T07:16:40.133Z,6.50
2019-03-28T07:19:10.844Z,6.20
2019-03-28T07:21:41.556Z,6.30
2019-03-28T07:24:09.215Z,6.50
2019-03-28T07:26:37.739Z,5.90
2019-03-28T07:29:08.084Z,6.00
2019-03-28T07:31:38.899Z,6.60
2019-03-28T07:34:06.802Z,7.00
2019-03-28T07:36:33.855Z,7.50
2019-03-28T07:39:08.800Z,7.70
2019-03-28T07:41:52.525Z,7.40
2019-03-28T07:44:26.585Z,7.10
2019-03-28T07:46:53.525Z,7.70
2019-03-28T07:49:21.523Z,7.80
2019-03-28T07:51:52.815Z,7.70
2019-03-28T07:54:23.599Z,7.90
2019-03-28T07:56:52.656Z,7.90
2019-03-28T07:59:22.717Z,8.00
2019-03-28T08:01:55.272Z,8.30
2019-03-28T08:04:21.729Z,8.00
2019-03-28T08:06:50.188Z,8.00
2019-03-28T08:09:17.711Z,8.20
2019-03-28T08:11:47.995Z,8.20
2019-03-28T08:14:13.826Z,8.00
2019-03-28T08:16:40.463Z,8.30
2019-03-28T08:19:08.100Z,8.90
2019-03-28T08:21:38.641Z,8.60
2019-03-28T08:24:05.421Z,9.30
2019-03-28T08:26:32.006Z,8.70
2019-03-28T08:28:59.354Z,9.20
2019-03-28T08:34:24.081Z,9.30
2019-03-28T08:36:51.032Z,9.40
2019-03-28T08:39:17.781Z,9.80
2019-03-28T08:41:53.955Z,9.80
2019-03-28T08:44:22.665Z,10.10
2019-03-28T08:46:49.944Z,10.20
2019-03-28T08:49:17.390Z,10.20
2019-03-28T08:51:44.015Z,9.90
2019-03-28T08:54:10.895Z,10.20
2019-03-28T08:56:37.725Z,10.50
2019-03-28T08:59:04.655Z,10.40
2019-03-28T09:04:15.643Z,10.80
2019-03-28T09:06:42.615Z,11.20
2019-03-28T09:09:09.296Z,11.30
2019-03-28T09:11:36.230Z,11.20
2019-03-28T09:14:03.871Z,11.40
2019-03-28T09:21:59.280Z,11.20
2019-03-28T09:24:26.096Z,11.00
2019-03-28T09:26:52.860Z,11.00
2019-03-28T09:29:19.489Z,10.50
2019-03-28T09:31:46.155Z,11.00
2019-03-28T09:34:12.778Z,11.40
2019-03-28T09:36:39.530Z,10.90
2019-03-28T09:39:06.244Z,10.90
2019-03-28T09:41:33.204Z,11.20
2019-03-28T09:44:00.267Z,11.50
2019-03-28T09:46:27.096Z,11.80
2019-03-28T09:48:54.006Z,11.80
2019-03-28T09:51:20.839Z,12.10
2019-03-28T09:53:47.633Z,12.10
2019-03-28T09:56:14.308Z,12.20
2019-03-28T09:58:41.236Z,12.50
2019-03-28T10:01:07.909Z,12.40
2019-03-28T10:03:34.509Z,12.50
2019-03-28T10:06:01.273Z,11.50
2019-03-28T10:08:28.103Z,11.40
2019-03-28T10:10:54.785Z,10.80
2019-03-28T10:13:21.528Z,11.10
2019-03-28T10:15:48.198Z,11.50
2019-03-28T10:18:14.783Z,12.30
2019-03-28T10:20:41.661Z,12.20
2019-03-28T10:23:08.526Z,12.20
2019-03-28T10:25:35.121Z,12.50
2019-03-28T10:28:01.761Z,12.60
2019-03-28T10:30:29.014Z,12.80
2019-03-28T10:32:56.078Z,12.70
2019-03-28T10:35:22.680Z,12.30
2019-03-28T10:40:21.598Z,12.90
2019-03-28T10:42:48.379Z,13.10
2019-03-28T10:45:15.098Z,13.00
2019-03-28T10:47:41.740Z,13.20
2019-03-28T10:50:08.369Z,12.50
2019-03-28T10:52:35.086Z,12.80
2019-03-28T10:55:02.251Z,13.20
2019-03-28T10:57:30.362Z,13.10
2019-03-28T10:59:57.756Z,13.00
2019-03-28T11:02:24.739Z,12.90
2019-03-28T11:04:51.537Z,13.00
2019-03-28T11:07:18.604Z,13.20
2019-03-28T11:09:45.529Z,13.30
2019-03-28T11:12:12.096Z,13.30
2019-03-28T11:14:38.781Z,13.30
2019-03-28T11:17:05.437Z,13.10
2019-03-28T11:19:32.026Z,12.80
2019-03-28T11:21:58.824Z,13.00
2019-03-28T11:24:25.743Z,13.60
2019-03-28T11:26:52.470Z,13.40
2019-03-28T11:29:19.112Z,13.10
2019-03-28T11:31:50.556Z,13.50
2019-03-28T11:34:14.781Z,13.50
2019-03-28T11:36:41.553Z,13.20
2019-03-28T11:39:09.512Z,13.10
2019-03-28T11:41:36.144Z,13.40
2019-03-28T11:44:02.872Z,13.80
2019-03-28T11:46:30.514Z,14.20
2019-03-28T11:48:57.237Z,13.60
2019-03-28T11:51:24.707Z,14.10
2019-03-28T11:53:52.026Z,14.30
2019-03-28T11:56:18.939Z,14.60
2019-03-28T11:58:45.686Z,14.90
2019-03-28T12:01:13.627Z,14.40
2019-03-28T12:03:40.308Z,14.70
2019-03-28T12:06:06.900Z,14.90
2019-03-28T12:08:35.147Z,14.40
2019-03-28T12:11:01.961Z,14.00
2019-03-28T12:13:28.962Z,14.20
2019-03-28T12:15:55.607Z,14.30
2019-03-28T12:18:24.903Z,13.90
2019-03-28T12:23:36.214Z,13.70
2019-03-28T12:26:03.212Z,14.60
2019-03-28T12:28:29.927Z,14.90
2019-03-28T12:30:56.846Z,15.10
2019-03-28T12:33:23.529Z,15.40
2019-03-28T12:35:50.426Z,14.90
2019-03-28T12:40:50.797Z,15.30
2019-03-28T12:43:17.474Z,15.90
2019-03-28T12:45:44.318Z,14.90
2019-03-28T12:48:11.130Z,14.60
2019-03-28T12:50:37.852Z,15.20
2019-03-28T12:53:05.177Z,15.90
2019-03-28T12:55:32.092Z,16.00
2019-03-28T12:57:58.779Z,16.80
2019-03-28T13:00:25.485Z,16.20
2019-03-28T13:03:10.223Z,15.80
2019-03-28T13:05:37.293Z,15.60
2019-03-28T13:08:04.073Z,16.10
2019-03-28T13:10:30.964Z,16.40
2019-03-28T13:13:00.741Z,16.00
2019-03-28T13:15:27.681Z,16.20
2019-03-28T13:17:54.403Z,16.70
2019-03-28T13:20:22.365Z,16.50
2019-03-28T13:22:51.917Z,16.50
2019-03-28T13:25:17.513Z,16.30
2019-03-28T13:27:44.999Z,16.30
2019-03-28T13:30:11.631Z,16.40
2019-03-28T13:32:42.180Z,16.00
2019-03-28T13:35:06.924Z,16.20
2019-03-28T13:37:33.677Z,16.50
2019-03-28T13:40:00.781Z,15.50
2019-03-28T13:42:27.527Z,15.20
2019-03-28T13:44:54.458Z,14.50
2019-03-28T13:47:21.354Z,15.20
2019-03-28T13:49:48.195Z,15.60
2019-03-28T13:52:14.879Z,15.90
2019-03-28T13:54:41.480Z,15.60
2019-03-28T13:57:08.418Z,15.10
2019-03-28T13:59:35.525Z,15.10
2019-03-28T14:02:02.461Z,15.50
2019-03-28T14:04:34.773Z,15.20
2019-03-28T14:07:01.420Z,15.40
2019-03-28T14:09:28.184Z,15.80
2019-03-28T14:11:55.206Z,15.60
2019-03-28T14:14:21.938Z,15.60
2019-03-28T14:16:49.779Z,15.80
2019-03-28T14:19:17.161Z,15.50
2019-03-28T14:21:43.805Z,15.40
2019-03-28T14:24:11.799Z,15.90
2019-03-28T14:26:40.475Z,16.20
2019-03-28T14:31:51.537Z,16.70
2019-03-28T14:34:18.279Z,16.60
2019-03-28T14:36:45.136Z,16.20
2019-03-28T14:39:12.154Z,15.80
2019-03-28T14:41:38.886Z,15.90
2019-03-28T14:44:08.570Z,15.80
2019-03-28T14:46:38.513Z,16.00
2019-03-28T14:49:05.238Z,15.60
2019-03-28T14:51:32.131Z,14.70
2019-03-28T14:53:58.766Z,14.90
2019-03-28T14:56:25.913Z,15.30
2019-03-28T14:58:52.518Z,15.70
2019-03-28T15:01:19.425Z,16.20
2019-03-28T15:03:46.329Z,16.30
2019-03-28T15:06:13.257Z,16.10
2019-03-28T15:08:40.256Z,15.80
2019-03-28T15:11:06.926Z,15.50
2019-03-28T15:13:33.795Z,16.10
2019-03-28T15:16:00.633Z,16.20
2019-03-28T15:18:27.582Z,15.90
2019-03-28T15:20:54.280Z,15.50
2019-03-28T15:23:20.980Z,15.50
2019-03-28T15:25:47.888Z,16.50
2019-03-28T15:28:14.543Z,15.70
2019-03-28T15:30:41.195Z,16.10
2019-03-28T15:33:08.142Z,15.80
2019-03-28T15:35:35.045Z,16.40
2019-03-28T15:38:01.916Z,16.60
2019-03-28T15:40:28.592Z,16.40
2019-03-28T15:42:55.237Z,16.60
2019-03-28T15:45:22.163Z,16.80
2019-03-28T15:47:51.848Z,16.90
2019-03-28T15:50:17.157Z,17.00
2019-03-28T15:52:43.819Z,16.30
2019-03-28T15:55:10.675Z,15.70
2019-03-28T15:57:37.318Z,16.10
2019-03-28T16:00:03.937Z,15.90
2019-03-28T16:02:30.614Z,15.80
2019-03-28T16:04:57.620Z,15.80
2019-03-28T16:07:24.724Z,16.00
2019-03-28T16:09:51.732Z,15.90
2019-03-28T16:12:18.424Z,15.30
2019-03-28T16:14:45.404Z,15.10
2019-03-28T16:17:12.150Z,14.80
2019-03-28T16:19:40.232Z,14.80
2019-03-28T16:22:06.910Z,14.80
2019-03-28T16:24:33.664Z,15.30
2019-03-28T16:27:00.399Z,14.90
2019-03-28T16:29:27.135Z,15.20
2019-03-28T16:31:54.080Z,15.30
2019-03-28T16:34:20.962Z,15.60
2019-03-28T16:36:48.058Z,15.70
2019-03-28T16:39:14.966Z,15.80
2019-03-28T16:41:41.615Z,15.30
2019-03-28T16:44:08.268Z,15.30
2019-03-28T16:46:35.086Z,15.30
2019-03-28T16:49:02.174Z,15.50
2019-03-28T16:51:29.862Z,15.40
2019-03-28T16:53:56.491Z,15.30
2019-03-28T16:56:23.141Z,15.30
2019-03-28T16:58:49.817Z,15.30
2019-03-28T17:01:16.525Z,15.30
2019-03-28T17:03:43.433Z,15.20
2019-03-28T17:06:10.879Z,15.30
2019-03-28T17:08:37.782Z,15.20
2019-03-28T17:11:04.385Z,15.10
2019-03-28T17:13:32.304Z,14.80
2019-03-28T17:15:59.063Z,14.90
2019-03-28T17:18:25.692Z,14.90
2019-03-28T17:20:52.709Z,14.80
2019-03-28T17:23:19.381Z,14.40
2019-03-28T17:25:45.972Z,14.50
2019-03-28T17:28:12.865Z,14.60
2019-03-28T17:30:39.769Z,14.60
2019-03-28T17:33:06.765Z,14.30
2019-03-28T17:35:33.725Z,14.20
2019-03-28T17:38:00.407Z,14.00
2019-03-28T17:40:27.061Z,14.00
2019-03-28T17:42:53.743Z,14.00
2019-03-28T17:45:20.622Z,13.90
2019-03-28T17:47:47.347Z,14.10
2019-03-28T17:50:14.523Z,14.20
2019-03-28T17:52:42.224Z,14.30
2019-03-28T17:55:09.856Z,14.40
2019-03-28T17:57:39.607Z,14.50
2019-03-28T18:03:08.131Z,13.80
2019-03-28T18:05:24.563Z,13.40
2019-03-28T18:07:53.126Z,13.40
2019-03-28T18:10:23.474Z,13.70
2019-03-28T18:12:50.370Z,13.60
2019-03-28T18:15:18.068Z,13.90
2019-03-28T18:17:45.039Z,13.90
2019-03-28T18:20:12.666Z,14.20
2019-03-28T18:22:40.576Z,14.10
2019-03-28T18:25:09.277Z,13.50
2019-03-28T18:27:36.907Z,13.60
2019-03-28T18:30:06.290Z,13.90
2019-03-28T18:32:39.152Z,13.20
2019-03-28T18:35:05.604Z,12.70
2019-03-28T18:37:38.280Z,12.60
2019-03-28T18:40:05.484Z,12.90
2019-03-28T18:42:33.260Z,13.50
2019-03-28T18:45:04.186Z,13.70
2019-03-28T18:47:31.920Z,13.80
2019-03-28T18:49:58.839Z,13.80
2019-03-28T18:52:25.552Z,13.70
2019-03-28T18:54:52.717Z,13.70
2019-03-28T18:57:20.029Z,13.20
2019-03-28T18:59:48.437Z,13.10
2019-03-28T19:02:16.871Z,13.10
2019-03-28T19:04:48.155Z,12.70
2019-03-28T19:07:18.913Z,12.90
2019-03-28T19:09:54.824Z,13.00
2019-03-28T19:12:17.647Z,13.10
2019-03-28T19:14:52.562Z,12.80
2019-03-28T19:17:22.771Z,12.60
2019-03-28T19:19:51.438Z,12.70
2019-03-28T19:22:23.293Z,12.80
2019-03-28T19:24:53.548Z,12.70
2019-03-28T19:27:21.463Z,13.00
2019-03-28T19:29:52.332Z,12.50
2019-03-28T19:32:38.098Z,12.70
2019-03-28T19:35:05.484Z,13.00
2019-03-28T19:37:39.820Z,13.10
2019-03-28T19:40:06.941Z,13.10
2019-03-28T19:42:37.728Z,13.00
2019-03-28T19:45:06.136Z,13.00
2019-03-28T19:47:34.437Z,13.00
2019-03-28T19:50:07.215Z,13.10
2019-03-28T19:52:37.163Z,13.00
2019-03-28T19:55:08.120Z,13.10
2019-03-28T19:57:35.801Z,13.10
2019-03-28T20:00:05.003Z,13.10
2019-03-28T20:02:36.122Z,12.70
2019-03-28T20:05:04.996Z,12.60
2019-03-28T20:07:35.240Z,12.80
2019-03-28T20:10:16.112Z,12.70
2019-03-28T20:12:40.667Z,12.60
2019-03-28T20:15:08.222Z,12.30
2019-03-28T20:17:39.585Z,12.30
2019-03-28T20:22:33.196Z,11.90
2019-03-28T20:25:00.942Z,12.00
2019-03-28T20:27:28.309Z,12.40
2019-03-28T20:29:55.798Z,12.50
2019-03-28T20:32:25.171Z,12.60
2019-03-28T20:40:27.471Z,12.50
2019-03-28T20:42:55.327Z,11.70
2019-03-28T20:48:13.654Z,11.60
2019-03-28T20:50:47.605Z,11.90
2019-03-28T20:53:16.562Z,12.00
2019-03-28T20:55:43.199Z,12.20
2019-03-28T20:58:16.113Z,12.20
2019-03-28T21:00:45.430Z,12.00
2019-03-28T21:03:15.928Z,11.40
2019-03-28T21:05:42.558Z,10.80
2019-03-28T21:08:09.448Z,11.10
2019-03-28T21:10:36.904Z,11.50
2019-03-28T21:13:04.521Z,11.90
2019-03-28T21:15:34.862Z,12.00
2019-03-28T21:18:01.997Z,11.90
2019-03-28T21:20:29.901Z,12.00
2019-03-28T21:22:57.937Z,11.90
2019-03-28T21:25:25.574Z,11.70
2019-03-28T21:27:52.191Z,11.90
2019-03-28T21:30:20.444Z,11.80
2019-03-28T21:32:55.200Z,11.30
2019-03-28T21:35:20.409Z,11.30
2019-03-28T21:37:47.078Z,11.70
2019-03-28T21:40:13.846Z,11.70
2019-03-28T21:42:40.578Z,11.80
2019-03-28T21:45:08.254Z,11.90
2019-03-28T21:47:36.785Z,11.90
2019-03-28T21:50:03.391Z,11.90
2019-03-28T21:52:29.978Z,11.60
2019-03-28T21:54:57.758Z,11.70
2019-03-28T21:57:25.569Z,11.60
2019-03-28T21:59:53.772Z,11.70
2019-03-28T22:02:20.731Z,11.60
2019-03-28T22:04:48.403Z,11.80
2019-03-28T22:07:15.448Z,11.80
2019-03-28T22:09:42.260Z,11.90
2019-03-28T22:12:10.583Z,11.20
2019-03-28T22:14:37.277Z,11.10
2019-03-28T22:17:03.931Z,11.00
2019-03-28T22:19:30.802Z,11.40
2019-03-28T22:24:43.143Z,11.40
2019-03-28T22:27:09.774Z,11.40
2019-03-28T22:29:36.710Z,11.50
2019-03-28T22:32:04.095Z,11.50
2019-03-28T22:34:30.845Z,11.20
2019-03-28T22:36:59.970Z,11.00
2019-03-28T22:39:26.021Z,10.70
2019-03-28T22:41:52.961Z,11.10
2019-03-28T22:44:19.583Z,11.30
2019-03-28T22:46:46.468Z,11.20
2019-03-28T22:49:13.077Z,11.20
2019-03-28T22:51:39.715Z,11.50
2019-03-28T22:54:06.623Z,10.80
2019-03-28T22:56:33.245Z,10.30
2019-03-28T22:59:00.854Z,10.60
2019-03-28T23:01:27.502Z,11.00
2019-03-28T23:03:54.211Z,11.30
2019-03-28T23:06:21.084Z,11.30
2019-03-28T23:08:47.711Z,11.10
2019-03-28T23:11:14.503Z,11.00
2019-03-28T23:13:41.135Z,11.10
2019-03-28T23:16:07.743Z,10.80
2019-03-28T23:18:34.550Z,11.00
2019-03-28T23:21:01.193Z,10.90
2019-03-28T23:23:27.786Z,10.90
2019-03-28T23:25:54.488Z,10.60
2019-03-28T23:28:21.117Z,10.30
2019-03-28T23:30:48.018Z,10.50
2019-03-28T23:33:14.830Z,10.60
2019-03-28T23:35:41.617Z,10.90
2019-03-28T23:38:08.313Z,10.50
2019-03-28T23:40:34.997Z,10.70
2019-03-28T23:43:01.873Z,10.80
2019-03-28T23:45:28.488Z,11.00
2019-03-28T23:47:55.888Z,10.80
2019-03-28T23:50:22.577Z,10.50
2019-03-28T23:52:49.431Z,10.40
2019-03-28T23:55:16.093Z,10.80
2019-03-28T23:57:42.703Z,11.00
